sensor_id;sensor_type;location;lat;lon;timestamp;P1;durP1;ratioP1;P2;durP2;ratioP2
68821;SDS011;55834;50.870;4.606;2023-02-26T00:01:34;9.98;;;3.97;;
68821;SDS011;55834;50.870;4.606;2023-02-26T00:04:01;6.90;;;3.40;;
68821;SDS011;55834;50.870;4.606;2023-02-26T00:08:56;9.20;;;2.88;;
68821;SDS011;55834;50.870;4.606;2023-02-26T00:11:21;7.30;;;3.27;;
68821;SDS011;55834;50.870;4.606;2023-02-26T00:13:47;7.60;;;3.03;;
68821;SDS011;55834;50.870;4.606;2023-02-26T00:16:29;12.75;;;5.53;;
68821;SDS011;55834;50.870;4.606;2023-02-26T00:18:57;9.48;;;3.83;;
68821;SDS011;55834;50.870;4.606;2023-02-26T00:21:24;8.85;;;3.85;;
68821;SDS011;55834;50.870;4.606;2023-02-26T00:23:55;5.90;;;3.03;;
68821;SDS011;55834;50.870;4.606;2023-02-26T00:26:22;11.15;;;3.33;;
68821;SDS011;55834;50.870;4.606;2023-02-26T00:28:50;7.13;;;3.45;;
68821;SDS011;55834;50.870;4.606;2023-02-26T00:31:16;6.32;;;3.20;;
68821;SDS011;55834;50.870;4.606;2023-02-26T00:33:42;9.65;;;3.88;;
68821;SDS011;55834;50.870;4.606;2023-02-26T00:38:33;14.43;;;5.43;;
68821;SDS011;55834;50.870;4.606;2023-02-26T00:41:00;9.13;;;3.30;;
68821;SDS011;55834;50.870;4.606;2023-02-26T00:43:26;14.18;;;3.42;;
68821;SDS011;55834;50.870;4.606;2023-02-26T00:51:07;5.07;;;2.50;;
68821;SDS011;55834;50.870;4.606;2023-02-26T00:53:46;7.28;;;3.22;;
68821;SDS011;55834;50.870;4.606;2023-02-26T00:56:18;6.70;;;3.10;;
68821;SDS011;55834;50.870;4.606;2023-02-26T00:58:44;7.83;;;3.63;;
68821;SDS011;55834;50.870;4.606;2023-02-26T01:01:09;4.80;;;3.07;;
68821;SDS011;55834;50.870;4.606;2023-02-26T01:03:35;5.32;;;2.90;;
68821;SDS011;55834;50.870;4.606;2023-02-26T01:06:00;8.43;;;3.85;;
68821;SDS011;55834;50.870;4.606;2023-02-26T01:08:28;6.18;;;3.42;;
68821;SDS011;55834;50.870;4.606;2023-02-26T01:10:58;7.70;;;4.35;;
68821;SDS011;55834;50.870;4.606;2023-02-26T01:13:24;4.93;;;3.17;;
68821;SDS011;55834;50.870;4.606;2023-02-26T01:15:51;7.07;;;2.85;;
68821;SDS011;55834;50.870;4.606;2023-02-26T01:18:25;4.63;;;2.65;;
68821;SDS011;55834;50.870;4.606;2023-02-26T01:20:56;9.70;;;3.22;;
68821;SDS011;55834;50.870;4.606;2023-02-26T01:23:30;10.20;;;3.60;;
68821;SDS011;55834;50.870;4.606;2023-02-26T01:26:14;7.88;;;2.92;;
68821;SDS011;55834;50.870;4.606;2023-02-26T01:28:45;7.05;;;4.03;;
68821;SDS011;55834;50.870;4.606;2023-02-26T01:31:22;15.98;;;3.25;;
68821;SDS011;55834;50.870;4.606;2023-02-26T01:37:19;4.93;;;2.67;;
68821;SDS011;55834;50.870;4.606;2023-02-26T01:40:02;7.40;;;3.83;;
68821;SDS011;55834;50.870;4.606;2023-02-26T01:42:30;3.78;;;2.55;;
68821;SDS011;55834;50.870;4.606;2023-02-26T01:47:44;6.80;;;3.00;;
68821;SDS011;55834;50.870;4.606;2023-02-26T01:50:12;5.32;;;2.97;;
68821;SDS011;55834;50.870;4.606;2023-02-26T01:55:16;8.65;;;2.60;;
68821;SDS011;55834;50.870;4.606;2023-02-26T01:57:42;8.48;;;3.22;;
68821;SDS011;55834;50.870;4.606;2023-02-26T02:00:08;5.43;;;2.90;;
68821;SDS011;55834;50.870;4.606;2023-02-26T02:02:34;5.97;;;3.55;;
68821;SDS011;55834;50.870;4.606;2023-02-26T02:05:03;6.97;;;3.85;;
68821;SDS011;55834;50.870;4.606;2023-02-26T02:07:35;10.02;;;3.53;;
68821;SDS011;55834;50.870;4.606;2023-02-26T02:10:00;7.25;;;4.30;;
68821;SDS011;55834;50.870;4.606;2023-02-26T02:15:32;8.30;;;3.28;;
68821;SDS011;55834;50.870;4.606;2023-02-26T02:20:59;5.65;;;2.75;;
68821;SDS011;55834;50.870;4.606;2023-02-26T02:23:34;6.97;;;2.83;;
68821;SDS011;55834;50.870;4.606;2023-02-26T02:31:39;5.75;;;2.80;;
68821;SDS011;55834;50.870;4.606;2023-02-26T02:36:45;6.55;;;2.13;;
68821;SDS011;55834;50.870;4.606;2023-02-26T02:39:19;10.75;;;3.25;;
68821;SDS011;55834;50.870;4.606;2023-02-26T02:41:53;10.10;;;2.80;;
68821;SDS011;55834;50.870;4.606;2023-02-26T02:44:24;5.88;;;3.20;;
68821;SDS011;55834;50.870;4.606;2023-02-26T02:46:51;7.18;;;3.40;;
68821;SDS011;55834;50.870;4.606;2023-02-26T02:49:40;8.82;;;2.58;;
68821;SDS011;55834;50.870;4.606;2023-02-26T02:52:12;9.32;;;2.88;;
68821;SDS011;55834;50.870;4.606;2023-02-26T02:54:49;6.38;;;3.10;;
68821;SDS011;55834;50.870;4.606;2023-02-26T02:57:26;7.07;;;2.30;;
68821;SDS011;55834;50.870;4.606;2023-02-26T02:59:59;5.07;;;2.38;;
68821;SDS011;55834;50.870;4.606;2023-02-26T03:05:12;10.25;;;3.38;;
68821;SDS011;55834;50.870;4.606;2023-02-26T03:10:25;7.93;;;2.78;;
68821;SDS011;55834;50.870;4.606;2023-02-26T03:12:51;8.95;;;2.47;;
68821;SDS011;55834;50.870;4.606;2023-02-26T03:15:17;5.77;;;2.47;;
68821;SDS011;55834;50.870;4.606;2023-02-26T03:17:53;8.60;;;2.60;;
68821;SDS011;55834;50.870;4.606;2023-02-26T03:20:34;5.93;;;2.58;;
68821;SDS011;55834;50.870;4.606;2023-02-26T03:23:08;11.48;;;2.33;;
68821;SDS011;55834;50.870;4.606;2023-02-26T03:28:37;4.05;;;2.20;;
68821;SDS011;55834;50.870;4.606;2023-02-26T03:31:14;11.02;;;3.00;;
68821;SDS011;55834;50.870;4.606;2023-02-26T03:33:48;7.78;;;2.30;;
68821;SDS011;55834;50.870;4.606;2023-02-26T03:38:57;5.07;;;2.53;;
68821;SDS011;55834;50.870;4.606;2023-02-26T03:41:33;3.25;;;2.10;;
68821;SDS011;55834;50.870;4.606;2023-02-26T03:44:06;5.50;;;2.40;;
68821;SDS011;55834;50.870;4.606;2023-02-26T03:46:44;4.28;;;1.83;;
68821;SDS011;55834;50.870;4.606;2023-02-26T03:49:14;4.82;;;2.08;;
68821;SDS011;55834;50.870;4.606;2023-02-26T03:51:49;3.75;;;1.83;;
68821;SDS011;55834;50.870;4.606;2023-02-26T03:54:20;1.95;;;1.67;;
68821;SDS011;55834;50.870;4.606;2023-02-26T03:56:50;7.65;;;2.80;;
68821;SDS011;55834;50.870;4.606;2023-02-26T03:59:16;6.95;;;2.00;;
68821;SDS011;55834;50.870;4.606;2023-02-26T04:01:58;3.67;;;2.13;;
68821;SDS011;55834;50.870;4.606;2023-02-26T04:07:17;7.30;;;2.70;;
68821;SDS011;55834;50.870;4.606;2023-02-26T04:09:47;4.80;;;1.98;;
68821;SDS011;55834;50.870;4.606;2023-02-26T04:12:14;2.55;;;1.80;;
68821;SDS011;55834;50.870;4.606;2023-02-26T04:14:44;5.40;;;2.22;;
68821;SDS011;55834;50.870;4.606;2023-02-26T04:17:09;6.73;;;1.83;;
68821;SDS011;55834;50.870;4.606;2023-02-26T04:19:34;5.87;;;2.27;;
68821;SDS011;55834;50.870;4.606;2023-02-26T04:22:00;5.53;;;2.53;;
68821;SDS011;55834;50.870;4.606;2023-02-26T04:24:25;2.75;;;1.42;;
68821;SDS011;55834;50.870;4.606;2023-02-26T04:26:51;4.90;;;2.20;;
68821;SDS011;55834;50.870;4.606;2023-02-26T04:29:16;3.73;;;1.73;;
68821;SDS011;55834;50.870;4.606;2023-02-26T04:31:41;6.57;;;1.90;;
68821;SDS011;55834;50.870;4.606;2023-02-26T04:34:06;5.43;;;2.53;;
68821;SDS011;55834;50.870;4.606;2023-02-26T04:36:32;3.90;;;1.90;;
68821;SDS011;55834;50.870;4.606;2023-02-26T04:38:57;6.10;;;2.22;;
68821;SDS011;55834;50.870;4.606;2023-02-26T04:41:24;5.25;;;2.03;;
68821;SDS011;55834;50.870;4.606;2023-02-26T04:43:49;4.87;;;2.83;;
68821;SDS011;55834;50.870;4.606;2023-02-26T04:46:14;4.70;;;1.93;;
68821;SDS011;55834;50.870;4.606;2023-02-26T04:48:40;5.38;;;1.75;;
68821;SDS011;55834;50.870;4.606;2023-02-26T04:51:05;4.03;;;1.77;;
68821;SDS011;55834;50.870;4.606;2023-02-26T04:53:31;2.43;;;0.73;;
68821;SDS011;55834;50.870;4.606;2023-02-26T04:55:56;7.43;;;2.08;;
68821;SDS011;55834;50.870;4.606;2023-02-26T04:58:21;2.30;;;1.47;;
68821;SDS011;55834;50.870;4.606;2023-02-26T05:00:48;6.03;;;1.87;;
68821;SDS011;55834;50.870;4.606;2023-02-26T05:03:14;3.60;;;1.40;;
68821;SDS011;55834;50.870;4.606;2023-02-26T05:05:39;6.07;;;1.70;;
68821;SDS011;55834;50.870;4.606;2023-02-26T05:08:05;5.40;;;1.83;;
68821;SDS011;55834;50.870;4.606;2023-02-26T05:10:30;2.80;;;1.90;;
68821;SDS011;55834;50.870;4.606;2023-02-26T05:12:56;3.95;;;1.60;;
68821;SDS011;55834;50.870;4.606;2023-02-26T05:15:21;1.80;;;1.53;;
68821;SDS011;55834;50.870;4.606;2023-02-26T05:17:46;6.77;;;1.67;;
68821;SDS011;55834;50.870;4.606;2023-02-26T05:20:12;1.40;;;0.90;;
68821;SDS011;55834;50.870;4.606;2023-02-26T05:22:37;3.13;;;1.30;;
68821;SDS011;55834;50.870;4.606;2023-02-26T05:25:04;3.92;;;2.08;;
68821;SDS011;55834;50.870;4.606;2023-02-26T05:27:31;1.75;;;1.30;;
68821;SDS011;55834;50.870;4.606;2023-02-26T05:29:57;7.00;;;1.85;;
68821;SDS011;55834;50.870;4.606;2023-02-26T05:32:22;1.20;;;1.10;;
68821;SDS011;55834;50.870;4.606;2023-02-26T05:34:48;1.43;;;1.00;;
68821;SDS011;55834;50.870;4.606;2023-02-26T05:37:13;3.20;;;1.30;;
68821;SDS011;55834;50.870;4.606;2023-02-26T05:39:38;1.97;;;1.30;;
68821;SDS011;55834;50.870;4.606;2023-02-26T05:42:05;4.65;;;1.48;;
68821;SDS011;55834;50.870;4.606;2023-02-26T05:44:31;1.65;;;0.85;;
68821;SDS011;55834;50.870;4.606;2023-02-26T05:46:56;1.85;;;1.15;;
68821;SDS011;55834;50.870;4.606;2023-02-26T05:49:22;3.87;;;1.27;;
68821;SDS011;55834;50.870;4.606;2023-02-26T05:51:47;5.43;;;1.60;;
68821;SDS011;55834;50.870;4.606;2023-02-26T05:54:12;4.57;;;1.07;;
68821;SDS011;55834;50.870;4.606;2023-02-26T05:56:38;3.27;;;1.13;;
68821;SDS011;55834;50.870;4.606;2023-02-26T05:59:04;3.25;;;1.45;;
68821;SDS011;55834;50.870;4.606;2023-02-26T06:01:29;5.60;;;1.70;;
68821;SDS011;55834;50.870;4.606;2023-02-26T06:03:55;2.17;;;1.20;;
68821;SDS011;55834;50.870;4.606;2023-02-26T06:06:20;3.50;;;1.03;;
68821;SDS011;55834;50.870;4.606;2023-02-26T06:08:45;5.65;;;1.90;;
68821;SDS011;55834;50.870;4.606;2023-02-26T06:11:11;6.88;;;2.13;;
68821;SDS011;55834;50.870;4.606;2023-02-26T06:13:37;4.38;;;1.52;;
68821;SDS011;55834;50.870;4.606;2023-02-26T06:16:02;3.15;;;1.00;;
68821;SDS011;55834;50.870;4.606;2023-02-26T06:18:28;6.53;;;1.63;;
68821;SDS011;55834;50.870;4.606;2023-02-26T06:20:53;3.30;;;1.07;;
68821;SDS011;55834;50.870;4.606;2023-02-26T06:23:19;5.73;;;1.33;;
68821;SDS011;55834;50.870;4.606;2023-02-26T06:25:45;3.95;;;1.42;;
68821;SDS011;55834;50.870;4.606;2023-02-26T06:28:10;4.97;;;1.80;;
68821;SDS011;55834;50.870;4.606;2023-02-26T06:30:35;4.60;;;1.13;;
68821;SDS011;55834;50.870;4.606;2023-02-26T06:33:01;2.70;;;1.60;;
68821;SDS011;55834;50.870;4.606;2023-02-26T06:35:26;2.17;;;1.47;;
68821;SDS011;55834;50.870;4.606;2023-02-26T06:37:55;2.63;;;1.10;;
68821;SDS011;55834;50.870;4.606;2023-02-26T06:40:21;4.88;;;1.35;;
68821;SDS011;55834;50.870;4.606;2023-02-26T06:42:46;6.80;;;1.45;;
68821;SDS011;55834;50.870;4.606;2023-02-26T06:45:12;4.65;;;1.60;;
68821;SDS011;55834;50.870;4.606;2023-02-26T06:47:38;7.50;;;1.58;;
68821;SDS011;55834;50.870;4.606;2023-02-26T06:50:04;6.82;;;1.73;;
68821;SDS011;55834;50.870;4.606;2023-02-26T06:52:30;5.10;;;2.13;;
68821;SDS011;55834;50.870;4.606;2023-02-26T06:54:56;4.15;;;1.48;;
68821;SDS011;55834;50.870;4.606;2023-02-26T06:57:21;3.00;;;1.10;;
68821;SDS011;55834;50.870;4.606;2023-02-26T06:59:46;2.47;;;0.80;;
68821;SDS011;55834;50.870;4.606;2023-02-26T07:02:16;3.33;;;1.70;;
68821;SDS011;55834;50.870;4.606;2023-02-26T07:04:43;6.65;;;1.30;;
68821;SDS011;55834;50.870;4.606;2023-02-26T07:07:08;3.70;;;1.40;;
68821;SDS011;55834;50.870;4.606;2023-02-26T07:09:33;1.93;;;1.07;;
68821;SDS011;55834;50.870;4.606;2023-02-26T07:11:59;2.08;;;1.08;;
68821;SDS011;55834;50.870;4.606;2023-02-26T07:14:24;3.93;;;1.10;;
68821;SDS011;55834;50.870;4.606;2023-02-26T07:16:50;5.60;;;0.90;;
68821;SDS011;55834;50.870;4.606;2023-02-26T07:19:15;2.83;;;1.27;;
68821;SDS011;55834;50.870;4.606;2023-02-26T07:21:40;4.17;;;0.73;;
68821;SDS011;55834;50.870;4.606;2023-02-26T07:24:06;4.90;;;1.70;;
68821;SDS011;55834;50.870;4.606;2023-02-26T07:26:31;3.63;;;1.08;;
68821;SDS011;55834;50.870;4.606;2023-02-26T07:28:57;3.87;;;0.80;;
68821;SDS011;55834;50.870;4.606;2023-02-26T07:31:22;1.93;;;1.07;;
68821;SDS011;55834;50.870;4.606;2023-02-26T07:33:48;4.50;;;0.95;;
68821;SDS011;55834;50.870;4.606;2023-02-26T07:36:13;1.40;;;0.73;;
68821;SDS011;55834;50.870;4.606;2023-02-26T07:38:38;3.17;;;1.30;;
68821;SDS011;55834;50.870;4.606;2023-02-26T07:41:05;1.35;;;0.90;;
68821;SDS011;55834;50.870;4.606;2023-02-26T07:43:31;4.27;;;0.80;;
68821;SDS011;55834;50.870;4.606;2023-02-26T07:45:56;2.80;;;1.27;;
68821;SDS011;55834;50.870;4.606;2023-02-26T07:48:24;2.10;;;1.50;;
68821;SDS011;55834;50.870;4.606;2023-02-26T07:50:53;1.85;;;0.90;;
68821;SDS011;55834;50.870;4.606;2023-02-26T07:53:19;4.68;;;0.90;;
68821;SDS011;55834;50.870;4.606;2023-02-26T07:55:45;3.22;;;0.77;;
68821;SDS011;55834;50.870;4.606;2023-02-26T07:58:10;0.93;;;0.43;;
68821;SDS011;55834;50.870;4.606;2023-02-26T08:00:35;4.37;;;1.20;;
68821;SDS011;55834;50.870;4.606;2023-02-26T08:03:00;1.07;;;0.77;;
68821;SDS011;55834;50.870;4.606;2023-02-26T08:05:26;3.77;;;1.17;;
68821;SDS011;55834;50.870;4.606;2023-02-26T08:07:51;4.40;;;1.75;;
68821;SDS011;55834;50.870;4.606;2023-02-26T08:10:17;2.67;;;1.47;;
68821;SDS011;55834;50.870;4.606;2023-02-26T08:12:42;1.25;;;1.00;;
68821;SDS011;55834;50.870;4.606;2023-02-26T08:15:08;1.30;;;0.73;;
68821;SDS011;55834;50.870;4.606;2023-02-26T08:17:34;3.05;;;1.63;;
68821;SDS011;55834;50.870;4.606;2023-02-26T08:20:00;3.37;;;1.10;;
68821;SDS011;55834;50.870;4.606;2023-02-26T08:22:25;5.97;;;2.03;;
68821;SDS011;55834;50.870;4.606;2023-02-26T08:24:51;6.22;;;1.90;;
68821;SDS011;55834;50.870;4.606;2023-02-26T08:27:16;1.05;;;0.80;;
68821;SDS011;55834;50.870;4.606;2023-02-26T08:29:43;1.98;;;1.13;;
68821;SDS011;55834;50.870;4.606;2023-02-26T08:32:10;2.60;;;1.15;;
68821;SDS011;55834;50.870;4.606;2023-02-26T08:34:36;1.70;;;0.85;;
68821;SDS011;55834;50.870;4.606;2023-02-26T08:37:01;2.60;;;1.00;;
68821;SDS011;55834;50.870;4.606;2023-02-26T08:39:26;1.73;;;0.93;;
68821;SDS011;55834;50.870;4.606;2023-02-26T08:41:52;2.07;;;0.77;;
68821;SDS011;55834;50.870;4.606;2023-02-26T08:44:17;3.73;;;0.93;;
68821;SDS011;55834;50.870;4.606;2023-02-26T08:46:42;3.83;;;1.07;;
68821;SDS011;55834;50.870;4.606;2023-02-26T08:49:08;2.97;;;1.27;;
68821;SDS011;55834;50.870;4.606;2023-02-26T08:51:33;10.38;;;1.35;;
68821;SDS011;55834;50.870;4.606;2023-02-26T08:53:58;2.47;;;1.10;;
68821;SDS011;55834;50.870;4.606;2023-02-26T08:56:24;3.17;;;0.90;;
68821;SDS011;55834;50.870;4.606;2023-02-26T08:58:50;1.85;;;0.77;;
68821;SDS011;55834;50.870;4.606;2023-02-26T09:01:16;1.42;;;0.98;;
68821;SDS011;55834;50.870;4.606;2023-02-26T09:03:41;3.42;;;0.80;;
68821;SDS011;55834;50.870;4.606;2023-02-26T09:06:07;4.27;;;1.57;;
68821;SDS011;55834;50.870;4.606;2023-02-26T09:08:32;0.63;;;0.60;;
68821;SDS011;55834;50.870;4.606;2023-02-26T09:10:59;3.38;;;1.40;;
68821;SDS011;55834;50.870;4.606;2023-02-26T09:13:25;2.92;;;0.90;;
68821;SDS011;55834;50.870;4.606;2023-02-26T09:15:50;2.50;;;0.87;;
68821;SDS011;55834;50.870;4.606;2023-02-26T09:18:16;1.87;;;0.67;;
68821;SDS011;55834;50.870;4.606;2023-02-26T09:20:42;8.75;;;1.10;;
68821;SDS011;55834;50.870;4.606;2023-02-26T09:23:08;4.68;;;1.17;;
68821;SDS011;55834;50.870;4.606;2023-02-26T09:25:34;1.02;;;0.80;;
68821;SDS011;55834;50.870;4.606;2023-02-26T09:27:59;1.58;;;0.70;;
68821;SDS011;55834;50.870;4.606;2023-02-26T09:30:25;1.23;;;0.80;;
68821;SDS011;55834;50.870;4.606;2023-02-26T09:32:50;1.63;;;1.02;;
68821;SDS011;55834;50.870;4.606;2023-02-26T09:35:17;6.70;;;0.88;;
68821;SDS011;55834;50.870;4.606;2023-02-26T09:37:43;6.03;;;1.27;;
68821;SDS011;55834;50.870;4.606;2023-02-26T09:40:11;2.25;;;0.90;;
68821;SDS011;55834;50.870;4.606;2023-02-26T09:45:30;5.88;;;0.90;;
68821;SDS011;55834;50.870;4.606;2023-02-26T09:48:00;3.40;;;0.93;;
68821;SDS011;55834;50.870;4.606;2023-02-26T09:55:42;1.92;;;0.60;;
68821;SDS011;55834;50.870;4.606;2023-02-26T10:06:47;1.23;;;0.68;;
68821;SDS011;55834;50.870;4.606;2023-02-26T10:17:34;3.05;;;1.13;;
68821;SDS011;55834;50.870;4.606;2023-02-26T10:20:12;0.50;;;0.50;;
68821;SDS011;55834;50.870;4.606;2023-02-26T10:25:53;2.17;;;0.82;;
68821;SDS011;55834;50.870;4.606;2023-02-26T10:30:57;2.22;;;0.75;;
68821;SDS011;55834;50.870;4.606;2023-02-26T10:39:54;2.27;;;0.80;;
68821;SDS011;55834;50.870;4.606;2023-02-26T10:41:58;1.75;;;1.08;;
68821;SDS011;55834;50.870;4.606;2023-02-26T10:48:00;2.83;;;0.40;;
68821;SDS011;55834;50.870;4.606;2023-02-26T10:58:12;1.00;;;0.68;;
68821;SDS011;55834;50.870;4.606;2023-02-26T11:00:44;1.10;;;0.93;;
68821;SDS011;55834;50.870;4.606;2023-02-26T11:03:18;0.60;;;0.30;;
68821;SDS011;55834;50.870;4.606;2023-02-26T11:05:46;0.65;;;0.32;;
68821;SDS011;55834;50.870;4.606;2023-02-26T11:08:32;7.28;;;1.58;;
68821;SDS011;55834;50.870;4.606;2023-02-26T11:11:07;0.40;;;0.40;;
68821;SDS011;55834;50.870;4.606;2023-02-26T11:13:34;1.05;;;0.52;;
68821;SDS011;55834;50.870;4.606;2023-02-26T11:16:04;1.90;;;0.50;;
68821;SDS011;55834;50.870;4.606;2023-02-26T11:18:38;2.30;;;0.80;;
68821;SDS011;55834;50.870;4.606;2023-02-26T11:21:29;2.78;;;0.60;;
68821;SDS011;55834;50.870;4.606;2023-02-26T11:27:12;0.68;;;0.55;;
68821;SDS011;55834;50.870;4.606;2023-02-26T11:29:41;1.75;;;0.60;;
68821;SDS011;55834;50.870;4.606;2023-02-26T11:32:17;0.70;;;0.50;;
68821;SDS011;55834;50.870;4.606;2023-02-26T11:34:46;6.85;;;1.45;;
68821;SDS011;55834;50.870;4.606;2023-02-26T11:37:15;0.95;;;0.50;;
68821;SDS011;55834;50.870;4.606;2023-02-26T11:39:45;1.40;;;0.30;;
68821;SDS011;55834;50.870;4.606;2023-02-26T11:42:24;0.50;;;0.50;;
68821;SDS011;55834;50.870;4.606;2023-02-26T11:47:18;0.80;;;0.63;;
68821;SDS011;55834;50.870;4.606;2023-02-26T11:49:51;2.50;;;0.80;;
68821;SDS011;55834;50.870;4.606;2023-02-26T11:52:20;1.08;;;0.45;;
68821;SDS011;55834;50.870;4.606;2023-02-26T11:54:53;1.42;;;0.68;;
68821;SDS011;55834;50.870;4.606;2023-02-26T11:57:24;0.77;;;0.65;;
68821;SDS011;55834;50.870;4.606;2023-02-26T11:59:53;0.90;;;0.50;;
68821;SDS011;55834;50.870;4.606;2023-02-26T12:02:24;1.80;;;0.50;;
68821;SDS011;55834;50.870;4.606;2023-02-26T12:04:54;0.63;;;0.60;;
68821;SDS011;55834;50.870;4.606;2023-02-26T12:07:24;1.20;;;0.80;;
68821;SDS011;55834;50.870;4.606;2023-02-26T12:09:50;1.85;;;0.30;;
68821;SDS011;55834;50.870;4.606;2023-02-26T12:15:22;0.70;;;0.45;;
68821;SDS011;55834;50.870;4.606;2023-02-26T12:18:04;1.30;;;0.70;;
68821;SDS011;55834;50.870;4.606;2023-02-26T12:20:54;1.05;;;0.40;;
68821;SDS011;55834;50.870;4.606;2023-02-26T12:23:52;1.13;;;0.50;;
68821;SDS011;55834;50.870;4.606;2023-02-26T12:26:32;0.43;;;0.43;;
68821;SDS011;55834;50.870;4.606;2023-02-26T12:47:25;1.10;;;1.10;;
68821;SDS011;55834;50.870;4.606;2023-02-26T12:50:26;1.83;;;0.90;;
68821;SDS011;55834;50.870;4.606;2023-02-26T12:53:13;0.93;;;0.45;;
68821;SDS011;55834;50.870;4.606;2023-02-26T12:56:03;2.63;;;0.80;;
68821;SDS011;55834;50.870;4.606;2023-02-26T13:04:34;0.70;;;0.20;;
68821;SDS011;55834;50.870;4.606;2023-02-26T13:07:10;4.57;;;1.02;;
68821;SDS011;55834;50.870;4.606;2023-02-26T13:12:37;2.00;;;0.65;;
68821;SDS011;55834;50.870;4.606;2023-02-26T13:18:02;15.02;;;4.90;;
68821;SDS011;55834;50.870;4.606;2023-02-26T13:20:33;7.40;;;2.60;;
68821;SDS011;55834;50.870;4.606;2023-02-26T13:23:13;6.72;;;2.78;;
68821;SDS011;55834;50.870;4.606;2023-02-26T13:25:47;1.60;;;0.95;;
68821;SDS011;55834;50.870;4.606;2023-02-26T13:31:03;1.75;;;0.80;;
68821;SDS011;55834;50.870;4.606;2023-02-26T13:33:33;3.10;;;0.75;;
68821;SDS011;55834;50.870;4.606;2023-02-26T13:35:59;2.55;;;1.52;;
68821;SDS011;55834;50.870;4.606;2023-02-26T14:05:29;1.13;;;0.55;;
68821;SDS011;55834;50.870;4.606;2023-02-26T14:10:24;0.40;;;0.40;;
68821;SDS011;55834;50.870;4.606;2023-02-26T14:13:18;0.77;;;0.60;;
68821;SDS011;55834;50.870;4.606;2023-02-26T14:23:57;1.30;;;0.80;;
68821;SDS011;55834;50.870;4.606;2023-02-26T14:26:26;1.83;;;0.80;;
68821;SDS011;55834;50.870;4.606;2023-02-26T14:28:57;2.70;;;1.00;;
68821;SDS011;55834;50.870;4.606;2023-02-26T14:34:24;1.65;;;0.90;;
68821;SDS011;55834;50.870;4.606;2023-02-26T14:36:53;0.90;;;0.30;;
68821;SDS011;55834;50.870;4.606;2023-02-26T14:42:01;1.98;;;0.80;;
68821;SDS011;55834;50.870;4.606;2023-02-26T14:44:33;1.08;;;0.52;;
68821;SDS011;55834;50.870;4.606;2023-02-26T14:47:01;1.10;;;0.68;;
68821;SDS011;55834;50.870;4.606;2023-02-26T14:49:34;0.75;;;0.70;;
68821;SDS011;55834;50.870;4.606;2023-02-26T14:54:49;1.27;;;0.55;;
68821;SDS011;55834;50.870;4.606;2023-02-26T14:57:40;0.75;;;0.60;;
68821;SDS011;55834;50.870;4.606;2023-02-26T15:16:54;1.67;;;1.05;;
68821;SDS011;55834;50.870;4.606;2023-02-26T15:24:44;0.93;;;0.63;;
68821;SDS011;55834;50.870;4.606;2023-02-26T15:27:12;0.60;;;0.60;;
68821;SDS011;55834;50.870;4.606;2023-02-26T15:29:41;3.15;;;1.08;;
68821;SDS011;55834;50.870;4.606;2023-02-26T15:32:23;1.15;;;0.93;;
68821;SDS011;55834;50.870;4.606;2023-02-26T15:38:01;2.58;;;0.80;;
68821;SDS011;55834;50.870;4.606;2023-02-26T15:42:57;1.63;;;0.63;;
68821;SDS011;55834;50.870;4.606;2023-02-26T15:45:36;1.58;;;0.80;;
68821;SDS011;55834;50.870;4.606;2023-02-26T15:48:05;1.25;;;1.02;;
68821;SDS011;55834;50.870;4.606;2023-02-26T15:50:37;1.02;;;0.93;;
68821;SDS011;55834;50.870;4.606;2023-02-26T15:53:05;0.47;;;0.47;;
68821;SDS011;55834;50.870;4.606;2023-02-26T15:55:37;1.63;;;0.60;;
68821;SDS011;55834;50.870;4.606;2023-02-26T15:58:10;2.45;;;0.98;;
68821;SDS011;55834;50.870;4.606;2023-02-26T16:00:50;1.25;;;1.05;;
68821;SDS011;55834;50.870;4.606;2023-02-26T16:03:16;2.28;;;1.42;;
68821;SDS011;55834;50.870;4.606;2023-02-26T16:05:42;1.23;;;0.60;;
68821;SDS011;55834;50.870;4.606;2023-02-26T16:08:09;2.23;;;0.80;;
68821;SDS011;55834;50.870;4.606;2023-02-26T16:10:39;0.50;;;0.38;;
68821;SDS011;55834;50.870;4.606;2023-02-26T16:13:06;1.00;;;0.60;;
68821;SDS011;55834;50.870;4.606;2023-02-26T16:15:38;2.53;;;1.23;;
68821;SDS011;55834;50.870;4.606;2023-02-26T16:18:09;1.27;;;1.10;;
68821;SDS011;55834;50.870;4.606;2023-02-26T16:20:40;0.95;;;0.60;;
68821;SDS011;55834;50.870;4.606;2023-02-26T16:23:13;1.25;;;0.70;;
68821;SDS011;55834;50.870;4.606;2023-02-26T16:28:22;1.15;;;0.50;;
68821;SDS011;55834;50.870;4.606;2023-02-26T16:30:52;0.80;;;0.80;;
68821;SDS011;55834;50.870;4.606;2023-02-26T16:33:20;1.10;;;0.63;;
68821;SDS011;55834;50.870;4.606;2023-02-26T16:38:18;0.73;;;0.70;;
68821;SDS011;55834;50.870;4.606;2023-02-26T16:40:58;1.15;;;0.73;;
68821;SDS011;55834;50.870;4.606;2023-02-26T16:43:31;1.55;;;0.65;;
68821;SDS011;55834;50.870;4.606;2023-02-26T16:46:04;1.17;;;0.70;;
68821;SDS011;55834;50.870;4.606;2023-02-26T16:48:39;2.83;;;0.80;;
68821;SDS011;55834;50.870;4.606;2023-02-26T16:51:12;1.55;;;1.45;;
68821;SDS011;55834;50.870;4.606;2023-02-26T16:53:44;3.42;;;0.90;;
68821;SDS011;55834;50.870;4.606;2023-02-26T16:56:14;1.95;;;0.77;;
68821;SDS011;55834;50.870;4.606;2023-02-26T16:58:44;5.32;;;0.93;;
68821;SDS011;55834;50.870;4.606;2023-02-26T17:01:12;6.22;;;0.93;;
68821;SDS011;55834;50.870;4.606;2023-02-26T17:03:40;0.73;;;0.73;;
68821;SDS011;55834;50.870;4.606;2023-02-26T17:06:10;3.80;;;1.65;;
68821;SDS011;55834;50.870;4.606;2023-02-26T17:08:43;1.52;;;1.23;;
68821;SDS011;55834;50.870;4.606;2023-02-26T17:16:51;2.10;;;1.02;;
68821;SDS011;55834;50.870;4.606;2023-02-26T17:19:17;5.95;;;2.20;;
68821;SDS011;55834;50.870;4.606;2023-02-26T17:21:53;1.65;;;1.55;;
68821;SDS011;55834;50.870;4.606;2023-02-26T17:24:34;3.08;;;1.83;;
68821;SDS011;55834;50.870;4.606;2023-02-26T17:27:04;11.00;;;4.28;;
68821;SDS011;55834;50.870;4.606;2023-02-26T17:29:32;2.35;;;0.88;;
68821;SDS011;55834;50.870;4.606;2023-02-26T17:32:02;3.97;;;1.85;;
68821;SDS011;55834;50.870;4.606;2023-02-26T17:34:28;15.32;;;7.15;;
68821;SDS011;55834;50.870;4.606;2023-02-26T17:36:54;2.60;;;1.50;;
68821;SDS011;55834;50.870;4.606;2023-02-26T17:39:20;2.60;;;0.68;;
68821;SDS011;55834;50.870;4.606;2023-02-26T17:41:46;6.87;;;3.90;;
68821;SDS011;55834;50.870;4.606;2023-02-26T17:44:11;4.07;;;1.50;;
68821;SDS011;55834;50.870;4.606;2023-02-26T17:46:36;3.03;;;1.80;;
68821;SDS011;55834;50.870;4.606;2023-02-26T17:49:03;2.83;;;1.63;;
68821;SDS011;55834;50.870;4.606;2023-02-26T17:51:29;2.20;;;1.95;;
68821;SDS011;55834;50.870;4.606;2023-02-26T17:53:54;2.80;;;1.83;;
68821;SDS011;55834;50.870;4.606;2023-02-26T17:56:38;5.37;;;4.67;;
68821;SDS011;55834;50.870;4.606;2023-02-26T17:59:03;2.70;;;2.33;;
68821;SDS011;55834;50.870;4.606;2023-02-26T18:03:56;7.33;;;2.30;;
68821;SDS011;55834;50.870;4.606;2023-02-26T18:06:22;3.53;;;2.28;;
68821;SDS011;55834;50.870;4.606;2023-02-26T18:08:49;5.10;;;3.35;;
68821;SDS011;55834;50.870;4.606;2023-02-26T18:11:15;5.43;;;2.40;;
68821;SDS011;55834;50.870;4.606;2023-02-26T18:13:41;2.08;;;1.88;;
68821;SDS011;55834;50.870;4.606;2023-02-26T18:16:13;7.40;;;2.88;;
68821;SDS011;55834;50.870;4.606;2023-02-26T18:18:43;5.30;;;3.80;;
68821;SDS011;55834;50.870;4.606;2023-02-26T18:21:08;2.43;;;2.00;;
68821;SDS011;55834;50.870;4.606;2023-02-26T18:23:33;5.28;;;3.15;;
68821;SDS011;55834;50.870;4.606;2023-02-26T18:25:59;5.40;;;3.27;;
68821;SDS011;55834;50.870;4.606;2023-02-26T18:28:27;6.15;;;2.10;;
68821;SDS011;55834;50.870;4.606;2023-02-26T18:30:55;4.25;;;2.63;;
68821;SDS011;55834;50.870;4.606;2023-02-26T18:33:21;2.65;;;2.38;;
68821;SDS011;55834;50.870;4.606;2023-02-26T18:35:48;2.28;;;2.05;;
68821;SDS011;55834;50.870;4.606;2023-02-26T18:38:20;1.67;;;1.58;;
68821;SDS011;55834;50.870;4.606;2023-02-26T18:40:48;4.45;;;1.67;;
68821;SDS011;55834;50.870;4.606;2023-02-26T18:43:13;2.55;;;1.52;;